Time;durP1;ratioP1;P1;durP2;ratioP2;P2;SDS_P1;SDS_P2;PMS_P1;PMS_P2;Temp;Humidity;BMP_temperature;BMP_pressure;BME280_temperature;BME280_humidity;BME280_pressure;Samples;Min_cycle;Max_cycle;Signal;HPM_P1;HPM_P2
2022/12/22 03:26:51;;;;;;;31.50;23.00;;;8.90;99.90;;;;;;4937774;29;20059;-86
2022/12/22 03:29:16;;;;;;;35.58;24.17;;;9.00;99.90;;;;;;4971368;28;20039;-86
2022/12/22 03:31:42;;;;;;;36.60;23.80;;;9.00;99.90;;;;;;4956323;28;20056;-87
2022/12/22 03:34:08;;;;;;;29.88;21.88;;;8.90;99.90;;;;;;4985397;28;20081;-86
2022/12/22 03:36:33;;;;;;;34.00;23.65;;;9.00;99.90;;;;;;4997558;28;20042;-86
2022/12/22 03:38:59;;;;;;;36.83;23.80;;;8.90;99.90;;;;;;4962307;28;20050;-86
2022/12/22 03:46:53;;;;;;;34.97;23.35;;;9.00;99.90;;;;;;4978122;28;20050;-86
2022/12/22 03:49:21;;;;;;;27.88;20.60;;;8.90;99.90;;;;;;4959405;28;20078;-86
2022/12/22 03:51:49;;;;;;;36.22;23.55;;;8.90;99.90;;;;;;4960729;28;20054;-86
2022/12/22 03:54:20;;;;;;;34.22;22.65;;;9.00;99.90;;;;;;4977318;28;20475;-87
2022/12/22 03:56:48;;;;;;;37.22;24.17;;;9.00;99.90;;;;;;4959702;28;20394;-87
2022/12/22 03:59:14;;;;;;;30.38;21.70;;;8.90;99.90;;;;;;4959967;28;20050;-87
2022/12/22 04:01:43;;;;;;;37.33;24.05;;;9.00;99.90;;;;;;4960148;28;20050;-86
2022/12/22 04:04:10;;;;;;;40.55;24.20;;;8.90;99.90;;;;;;4976764;28;20043;-87
2022/12/22 04:06:35;;;;;;;38.90;24.15;;;8.90;99.90;;;;;;4960368;28;20050;-87
2022/12/22 04:09:02;;;;;;;37.28;23.95;;;8.90;99.90;;;;;;4976156;28;20047;-87
2022/12/22 04:14:12;;;;;;;42.17;25.38;;;8.90;99.90;;;;;;4959700;28;20050;-87
2022/12/22 04:16:37;;;;;;;35.72;23.15;;;9.00;99.90;;;;;;4959434;28;20058;-86
2022/12/22 04:19:05;;;;;;;46.97;25.40;;;9.00;99.90;;;;;;4959842;28;20077;-87
2022/12/22 04:21:31;;;;;;;52.45;25.73;;;9.00;99.90;;;;;;4959781;28;20046;-86
2022/12/22 04:23:59;;;;;;;50.70;26.42;;;9.00;99.90;;;;;;4959297;28;20049;-87
2022/12/22 04:26:28;;;;;;;50.22;26.30;;;9.00;99.90;;;;;;4959717;28;20443;-87
2022/12/22 04:28:54;;;;;;;60.42;27.40;;;9.00;99.90;;;;;;4959763;28;20443;-87
2022/12/22 04:31:21;;;;;;;57.15;27.98;;;9.00;99.90;;;;;;4976210;28;20134;-87
2022/12/22 04:33:47;;;;;;;64.00;27.20;;;9.00;99.90;;;;;;4976952;28;20039;-87
2022/12/22 04:36:12;;;;;;;65.75;28.60;;;9.00;99.90;;;;;;4958591;28;20057;-87
2022/12/22 04:38:38;;;;;;;67.90;29.27;;;9.00;99.90;;;;;;4975534;28;20051;-87
2022/12/22 04:41:04;;;;;;;64.60;29.17;;;9.00;99.90;;;;;;4959649;28;20494;-87
2022/12/22 04:43:31;;;;;;;71.53;30.92;;;9.00;99.90;;;;;;4958848;28;20506;-86
2022/12/22 04:45:57;;;;;;;57.80;28.83;;;9.00;99.90;;;;;;4974860;28;20125;-87
2022/12/22 04:48:24;;;;;;;73.97;31.08;;;9.00;99.90;;;;;;4976240;28;20565;-86
2022/12/22 04:50:51;;;;;;;63.20;29.75;;;9.00;99.90;;;;;;4959137;28;20058;-86
2022/12/22 04:53:19;;;;;;;98.25;33.78;;;9.00;99.90;;;;;;4958147;28;20046;-87
2022/12/22 04:55:49;;;;;;;100.40;31.35;;;9.00;99.90;;;;;;4958907;28;20047;-87
2022/12/22 04:58:15;;;;;;;60.63;29.27;;;9.00;99.90;;;;;;4975545;28;20404;-87
2022/12/22 05:00:41;;;;;;;78.13;33.55;;;9.00;99.90;;;;;;4975169;28;20043;-87
2022/12/22 05:03:08;;;;;;;77.30;33.78;;;9.00;99.90;;;;;;4975447;28;20487;-86
2022/12/22 05:05:34;;;;;;;57.67;28.00;;;8.90;99.90;;;;;;4948503;28;20043;-86
2022/12/22 05:08:00;;;;;;;59.17;29.02;;;9.00;99.90;;;;;;4976004;28;20077;-87
2022/12/22 05:10:26;;;;;;;57.90;28.55;;;9.00;99.90;;;;;;4958285;28;20121;-87
2022/12/22 05:12:54;;;;;;;45.85;26.60;;;8.90;99.90;;;;;;4957392;28;21074;-87
2022/12/22 05:15:42;;;;;;;64.35;29.00;;;9.00;99.90;;;;;;4975735;28;20039;-87
2022/12/22 05:18:08;;;;;;;61.58;29.42;;;9.00;99.90;;;;;;4974846;28;20058;-86
2022/12/22 05:20:34;;;;;;;67.78;30.00;;;9.00;99.90;;;;;;4957282;28;20038;-87
2022/12/22 05:23:00;;;;;;;67.50;31.10;;;9.00;99.90;;;;;;4958398;28;20057;-87
2022/12/22 05:25:26;;;;;;;73.30;32.45;;;9.00;99.90;;;;;;4958222;28;20627;-87
2022/12/22 05:27:51;;;;;;;79.45;33.00;;;9.00;99.90;;;;;;4957436;28;20038;-87
2022/12/22 05:30:18;;;;;;;76.47;31.98;;;9.00;99.90;;;;;;4958540;28;20074;-87
2022/12/22 05:32:44;;;;;;;77.13;32.70;;;9.00;99.90;;;;;;4975724;28;20042;-87
2022/12/22 05:35:10;;;;;;;66.65;30.70;;;9.00;99.90;;;;;;4956862;28;20055;-87
2022/12/22 05:37:36;;;;;;;61.33;28.50;;;9.00;99.90;;;;;;4975415;28;20051;-87
2022/12/22 05:40:02;;;;;;;81.50;31.10;;;9.00;99.90;;;;;;4975079;28;20111;-86
2022/12/22 05:42:46;;;;;;;81.00;30.67;;;9.00;99.90;;;;;;4974623;28;20054;-87
2022/12/22 05:45:20;;;;;;;62.45;26.77;;;9.00;99.90;;;;;;4958144;28;20082;-86
2022/12/22 05:47:49;;;;;;;70.90;28.95;;;8.90;99.90;;;;;;4974869;28;20047;-86
2022/12/22 05:50:17;;;;;;;66.00;27.77;;;9.00;99.90;;;;;;4957682;28;20038;-86
2022/12/22 05:52:43;;;;;;;66.30;27.15;;;8.90;99.90;;;;;;4973970;28;20122;-87
2022/12/22 05:55:10;;;;;;;65.85;26.27;;;8.90;99.90;;;;;;4957403;28;20133;-87
2022/12/22 05:57:36;;;;;;;56.70;24.42;;;8.90;99.90;;;;;;4956555;28;20047;-87
2022/12/22 06:00:04;;;;;;;54.67;23.83;;;8.90;99.90;;;;;;4974760;28;20062;-87
2022/12/22 06:02:29;;;;;;;49.38;22.02;;;8.90;99.90;;;;;;4955071;28;20038;-88
2022/12/22 06:04:58;;;;;;;50.75;22.58;;;8.90;99.90;;;;;;4976213;28;20049;-88
2022/12/22 06:07:34;;;;;;;52.03;22.08;;;8.80;99.90;;;;;;4975350;28;20053;-88
2022/12/22 06:10:03;;;;;;;52.03;22.77;;;8.80;99.90;;;;;;4956804;28;20494;-88
2022/12/22 06:12:29;;;;;;;57.22;23.85;;;8.80;99.90;;;;;;4956693;28;20058;-88
2022/12/22 06:14:55;;;;;;;53.95;24.13;;;8.80;99.90;;;;;;4974184;28;20039;-87
2022/12/22 06:17:20;;;;;;;50.38;23.10;;;8.80;99.90;;;;;;4955602;28;20043;-88
2022/12/22 06:19:46;;;;;;;51.90;23.98;;;8.80;99.90;;;;;;4957250;28;20042;-87
2022/12/22 06:22:12;;;;;;;58.28;24.77;;;8.70;99.90;;;;;;4976752;28;20123;-89
2022/12/22 06:24:43;;;;;;;58.58;23.52;;;8.70;99.90;;;;;;4957258;28;20054;-88
2022/12/22 06:27:23;;;;;;;57.85;24.08;;;8.80;99.90;;;;;;4954792;28;20550;-88
2022/12/22 06:30:10;;;;;;;54.00;22.75;;;8.70;99.90;;;;;;4956741;28;20125;-89
2022/12/22 06:32:39;;;;;;;55.28;23.73;;;8.70;99.90;;;;;;4957459;28;20039;-89
2022/12/22 06:35:25;;;;;;;52.97;23.70;;;8.70;99.90;;;;;;4981073;23;20399;-89
2022/12/22 06:37:51;;;;;;;51.38;22.73;;;8.70;99.90;;;;;;4974295;28;20376;-86
2022/12/22 06:40:16;;;;;;;42.17;20.38;;;8.70;99.90;;;;;;4973999;28;20049;-87
2022/12/22 06:45:42;;;;;;;32.53;18.48;;;8.60;99.90;;;;;;4961142;28;20141;-86
2022/12/22 06:48:09;;;;;;;41.78;20.33;;;8.60;99.90;;;;;;4973560;28;20039;-86
2022/12/22 06:50:35;;;;;;;34.90;19.20;;;8.60;99.90;;;;;;4974271;28;20050;-86
2022/12/22 06:53:01;;;;;;;28.52;17.50;;;8.60;99.90;;;;;;4973728;28;20047;-87
2022/12/22 06:55:27;;;;;;;32.15;17.85;;;8.50;99.90;;;;;;4953003;28;20480;-86
2022/12/22 06:57:52;;;;;;;27.55;17.38;;;8.60;99.90;;;;;;4939967;29;20062;-86
2022/12/22 07:00:19;;;;;;;30.25;18.23;;;8.50;99.90;;;;;;4977624;28;20077;-87
2022/12/22 07:02:44;;;;;;;34.20;19.17;;;8.50;99.90;;;;;;4957326;28;20047;-86
2022/12/22 07:05:10;;;;;;;28.42;17.77;;;8.50;99.90;;;;;;4950183;28;20155;-86
2022/12/22 07:07:36;;;;;;;29.65;18.23;;;8.50;99.90;;;;;;4957044;28;20125;-86
2022/12/22 07:10:02;;;;;;;31.17;18.10;;;8.50;99.90;;;;;;4956679;28;20509;-86
2022/12/22 07:12:27;;;;;;;31.98;18.40;;;8.40;99.90;;;;;;4955444;28;20046;-87
2022/12/22 07:14:53;;;;;;;42.28;22.17;;;8.40;99.90;;;;;;4972865;28;20063;-87
2022/12/22 07:17:19;;;;;;;35.78;19.60;;;8.40;99.90;;;;;;4958454;28;20101;-87
2022/12/22 07:19:44;;;;;;;38.90;20.83;;;8.40;99.90;;;;;;4955614;28;20049;-86
2022/12/22 07:22:10;;;;;;;42.85;21.40;;;8.30;99.90;;;;;;4956400;28;20039;-87
2022/12/22 07:24:36;;;;;;;39.92;20.52;;;8.30;99.90;;;;;;4956139;28;20510;-88
2022/12/22 07:27:01;;;;;;;38.38;20.85;;;8.30;99.90;;;;;;4956028;28;20039;-88
2022/12/22 07:29:27;;;;;;;40.92;20.75;;;8.30;99.90;;;;;;4974002;28;20053;-87
2022/12/22 07:31:52;;;;;;;42.03;20.05;;;8.30;99.90;;;;;;4973674;28;20057;-87
2022/12/22 07:34:18;;;;;;;46.85;21.52;;;8.30;99.90;;;;;;4954661;28;20051;-89
2022/12/22 07:37:19;;;;;;;44.50;20.77;;;8.30;99.90;;;;;;4955362;28;20082;-89
2022/12/22 07:39:51;;;;;;;48.00;20.98;;;8.20;99.90;;;;;;4947938;28;20162;-88
2022/12/22 07:45:06;;;;;;;38.00;19.52;;;8.20;99.90;;;;;;4951574;28;20046;-88
2022/12/22 07:50:23;;;;;;;40.80;20.40;;;8.20;99.90;;;;;;4956109;28;20046;-88
2022/12/22 07:54:57;;;;;;;40.72;19.42;;;8.20;99.90;;;;;;4925562;28;20046;-89
2022/12/22 08:05:10;;;;;;;34.80;18.00;;;8.10;99.90;;;;;;4928225;28;20512;-86
2022/12/22 08:08:05;;;;;;;34.97;17.80;;;8.10;99.90;;;;;;4956070;28;20558;-86
2022/12/22 08:10:28;;;;;;;34.65;17.88;;;8.10;99.90;;;;;;5040188;23;20050;-87
2022/12/22 08:13:37;;;;;;;34.03;17.67;;;8.10;99.90;;;;;;4975355;28;20229;-87
2022/12/22 08:16:12;;;;;;;38.67;18.08;;;8.10;99.90;;;;;;4990828;28;20125;-86
2022/12/22 08:18:59;;;;;;;;;;;;;;;;;;;;;
2022/12/22 08:21:34;;;;;;;35.88;18.30;;;8.10;99.90;;;;;;4975633;28;20419;-85
2022/12/22 08:24:00;;;;;;;38.55;18.73;;;8.00;99.90;;;;;;4977771;28;20070;-85
2022/12/22 08:26:31;;;;;;;30.55;17.33;;;8.10;99.90;;;;;;4974489;28;20062;-85
2022/12/22 08:29:08;;;;;;;33.03;17.42;;;8.00;99.90;;;;;;4990299;28;20046;-86
2022/12/22 08:31:34;;;;;;;34.15;15.77;;;8.00;99.90;;;;;;4995623;28;20122;-85
2022/12/22 08:34:04;;;;;;;34.25;16.45;;;8.00;99.90;;;;;;4996165;28;20135;-86
2022/12/22 08:36:31;;;;;;;26.25;14.20;;;8.00;99.90;;;;;;4977965;28;20057;-86
2022/12/22 08:38:58;;;;;;;37.45;15.00;;;8.00;99.90;;;;;;4996156;28;20578;-86
2022/12/22 08:44:08;;;;;;;34.25;16.80;;;7.90;99.90;;;;;;5005489;28;20046;-86
2022/12/22 08:46:34;;;;;;;31.13;16.40;;;7.90;99.90;;;;;;4975172;28;20061;-86
2022/12/22 08:49:00;;;;;;;36.58;14.05;;;7.90;99.90;;;;;;4973065;28;20038;-86
2022/12/22 08:51:25;;;;;;;29.38;14.75;;;7.90;99.90;;;;;;4977664;28;20050;-86
2022/12/22 08:53:51;;;;;;;30.20;15.93;;;7.80;99.90;;;;;;4974406;28;20143;-85
2022/12/22 08:56:17;;;;;;;31.70;15.13;;;7.80;99.90;;;;;;4969968;28;20043;-85
2022/12/22 08:58:42;;;;;;;35.30;13.63;;;7.80;99.90;;;;;;4989617;28;20042;-86
2022/12/22 09:01:15;;;;;;;27.83;13.15;;;7.80;99.90;;;;;;4994581;28;20430;-86
2022/12/22 09:04:29;;;;;;;;;;;;;;;;;;;;;
2022/12/22 09:07:48;;;;;;;;;;;;;;;;;;;;;
2022/12/22 09:14:09;;;;;;;34.78;14.68;;;7.60;99.90;;;;;;5044715;23;20093;-90
2022/12/22 09:16:39;;;;;;;26.73;13.57;;;7.60;99.90;;;;;;4977276;28;20137;-90
2022/12/22 09:19:10;;;;;;;24.33;12.57;;;7.70;99.90;;;;;;4977936;28;20134;-90
2022/12/22 09:22:17;;;;;;;23.45;13.18;;;7.70;99.90;;;;;;4974777;28;20062;-90
2022/12/22 09:25:10;;;;;;;30.13;13.38;;;7.70;99.90;;;;;;4915378;29;20515;-90
2022/12/22 09:27:59;;;;;;;29.70;11.05;;;7.70;99.90;;;;;;4879018;29;20100;-89
2022/12/22 09:30:46;;;;;;;;;;;;;;;;;;;;;
2022/12/22 09:40:23;;;;;;;18.67;9.77;;;7.50;99.90;;;;;;4108422;26;20058;-91
2022/12/22 09:43:26;;;;;;;20.23;10.20;;;7.50;99.90;;;;;;4974392;28;20050;-91
2022/12/22 09:45:54;;;;;;;18.75;8.30;;;7.50;99.90;;;;;;4915949;29;20048;-91
2022/12/22 09:48:44;;;;;;;17.38;9.20;;;7.50;99.90;;;;;;4900133;29;20051;-91
2022/12/22 09:51:12;;;;;;;17.60;8.35;;;7.50;99.90;;;;;;4900030;29;20072;-88
2022/12/22 09:53:40;;;;;;;17.92;8.73;;;7.50;99.90;;;;;;4900878;29;20457;-88
2022/12/22 09:56:10;;;;;;;30.48;10.98;;;7.50;99.90;;;;;;4900534;29;20068;-86
2022/12/22 09:58:35;;;;;;;18.55;10.35;;;7.50;99.90;;;;;;4899991;29;20051;-87
2022/12/22 10:04:26;;;;;;;20.45;9.32;;;7.40;99.90;;;;;;4889955;29;20047;-90
2022/12/22 10:07:17;;;;;;;18.80;9.18;;;7.40;99.90;;;;;;4900243;29;20067;-89
2022/12/22 10:09:45;;;;;;;21.73;9.15;;;7.40;99.90;;;;;;4913547;29;20047;-90
2022/12/22 10:12:17;;;;;;;17.23;9.75;;;7.40;99.90;;;;;;4907489;29;20480;-89
2022/12/22 10:14:45;;;;;;;20.05;8.85;;;7.40;99.90;;;;;;4897229;29;20050;-89
2022/12/22 10:17:22;;;;;;;19.85;9.38;;;7.40;99.90;;;;;;4898123;29;20044;-84
2022/12/22 10:19:50;;;;;;;24.73;10.23;;;7.40;99.90;;;;;;4916003;29;20048;-84
2022/12/22 10:22:35;;;;;;;22.27;9.50;;;7.40;99.90;;;;;;4915410;29;20514;-84
2022/12/22 10:25:04;;;;;;;19.95;10.00;;;7.40;99.90;;;;;;4917740;29;20124;-84
2022/12/22 10:27:35;;;;;;;18.92;9.63;;;7.50;99.90;;;;;;4915900;29;20044;-84
2022/12/22 10:30:27;;;;;;;30.10;13.73;;;7.50;99.90;;;;;;4916238;29;20044;-84
2022/12/22 10:33:12;;;;;;;17.52;9.20;;;7.50;99.90;;;;;;4900307;29;20071;-84
2022/12/22 10:35:51;;;;;;;20.85;10.35;;;7.50;99.90;;;;;;4900306;29;20163;-83
2022/12/22 10:38:34;;;;;;;19.02;9.43;;;7.50;99.90;;;;;;4916116;29;20106;-84
2022/12/22 10:41:16;;;;;;;20.27;8.88;;;7.60;99.90;;;;;;4900231;29;20052;-84
2022/12/22 10:43:54;;;;;;;22.95;10.20;;;7.60;99.90;;;;;;4916045;29;20091;-84
2022/12/22 10:46:34;;;;;;;27.02;10.45;;;7.60;99.90;;;;;;4898882;29;20127;-85
2022/12/22 10:49:22;;;;;;;22.83;10.68;;;7.60;99.90;;;;;;4902331;29;20403;-85
2022/12/22 10:52:08;;;;;;;21.15;9.52;;;7.60;99.90;;;;;;4902995;29;20566;-85
2022/12/22 10:54:35;;;;;;;20.25;8.95;;;7.70;99.90;;;;;;4915780;29;20052;-84
2022/12/22 10:57:05;;;;;;;26.23;9.85;;;7.70;99.90;;;;;;4899352;29;20044;-85
2022/12/22 10:59:32;;;;;;;23.33;9.00;;;7.80;99.90;;;;;;4900559;29;20506;-85
2022/12/22 11:02:27;;;;;;;23.05;10.60;;;7.80;99.90;;;;;;4899076;29;20484;-85
2022/12/22 11:05:00;;;;;;;22.48;8.13;;;7.90;99.90;;;;;;4892569;29;20103;-85
2022/12/22 11:07:29;;;;;;;24.48;8.95;;;7.90;99.90;;;;;;4902138;29;20543;-91
2022/12/22 11:09:55;;;;;;;19.52;8.93;;;7.90;99.90;;;;;;4902657;29;20070;-91
2022/12/22 11:13:01;;;;;;;21.02;9.05;;;7.90;99.90;;;;;;4900435;29;20050;-91
2022/12/22 11:15:32;;;;;;;20.60;9.10;;;8.00;99.90;;;;;;4901568;29;20090;-91
2022/12/22 11:18:41;;;;;;;22.55;8.98;;;8.00;99.90;;;;;;4917498;29;20048;-90
2022/12/22 11:21:21;;;;;;;20.77;8.15;;;8.00;99.90;;;;;;4861809;29;20647;-90
2022/12/22 11:24:20;;;;;;;20.67;8.07;;;8.00;99.90;;;;;;4862179;29;20098;-92
2022/12/22 11:27:01;;;;;;;19.50;8.18;;;8.00;99.90;;;;;;4861756;29;20057;-90
2022/12/22 11:29:45;;;;;;;19.30;8.40;;;8.00;99.90;;;;;;4899543;29;20078;-90
2022/12/22 11:32:33;;;;;;;19.60;8.02;;;8.10;99.90;;;;;;4903013;29;20076;-91
2022/12/22 11:35:19;;;;;;;22.52;8.93;;;8.10;99.90;;;;;;4903169;29;20531;-90
2022/12/22 11:38:06;;;;;;;19.88;8.98;;;8.10;99.90;;;;;;4901071;29;20069;-91
2022/12/22 11:40:49;;;;;;;17.73;8.23;;;8.10;99.90;;;;;;4915261;29;20079;-90
2022/12/22 11:43:34;;;;;;;18.95;7.95;;;8.10;99.90;;;;;;4937968;29;20460;-91
2022/12/22 11:46:28;;;;;;;20.27;7.95;;;8.20;99.90;;;;;;4937379;29;20048;-90
2022/12/22 11:53:16;;;;;;;;;;;;;;;;;;;;;
2022/12/22 12:00:49;;;;;;;;;;;;;;;;;;;;;
2022/12/22 12:12:51;;;;;;;17.67;6.55;;;8.30;99.90;;;;;;4951993;28;20046;-87
2022/12/22 12:15:33;;;;;;;20.00;6.70;;;8.30;99.90;;;;;;4993419;28;20061;-87
2022/12/22 12:18:33;;;;;;;14.85;6.90;;;8.30;99.90;;;;;;4964922;28;20501;-89
2022/12/22 12:32:21;;;;;;;20.33;6.25;;;8.40;99.90;;;;;;4937303;28;20050;-90
2022/12/22 12:35:20;;;;;;;14.38;5.95;;;8.40;99.90;;;;;;4948558;28;20054;-91
2022/12/22 12:37:51;;;;;;;15.40;5.82;;;8.50;99.90;;;;;;4995615;28;20053;-89
2022/12/22 12:41:35;;;;;;;18.92;5.95;;;8.50;99.90;;;;;;4979299;28;20054;-90
2022/12/22 12:45:01;;;;;;;;;;;;;;;;;;;;;
2022/12/22 12:54:47;;;;;;;15.30;5.22;;;8.60;99.90;;;;;;4917630;29;20069;-90
2022/12/22 12:58:03;;;;;;;21.42;5.30;;;8.60;99.90;;;;;;4923125;28;20055;-89
2022/12/22 13:00:53;;;;;;;17.30;4.80;;;8.70;99.90;;;;;;4933120;28;20080;-91
2022/12/22 13:08:08;;;;;;;16.92;5.65;;;8.80;99.90;;;;;;4916892;29;20076;-89
2022/12/22 13:10:40;;;;;;;15.82;4.15;;;8.80;99.90;;;;;;4929363;28;20093;-88
2022/12/22 13:13:32;;;;;;;18.58;4.63;;;8.80;99.90;;;;;;4966608;28;20058;-88
2022/12/22 13:16:03;;;;;;;17.42;5.35;;;8.90;99.90;;;;;;4943793;28;20050;-87
2022/12/22 13:18:47;;;;;;;13.52;4.95;;;8.90;99.90;;;;;;4974247;28;20051;-88
2022/12/22 13:21:21;;;;;;;17.98;4.28;;;8.90;99.90;;;;;;4982825;28;20053;-88
2022/12/22 13:24:02;;;;;;;18.50;3.70;;;8.90;99.90;;;;;;4995762;28;20110;-88
2022/12/22 13:26:41;;;;;;;15.95;4.07;;;9.00;99.90;;;;;;4979259;28;20042;-89
2022/12/22 13:29:14;;;;;;;17.67;4.38;;;8.90;99.90;;;;;;4976809;28;20047;-87
2022/12/22 13:31:47;;;;;;;14.20;4.97;;;9.00;99.90;;;;;;4978420;28;20038;-87
2022/12/22 13:34:59;;;;;;;16.13;4.30;;;9.00;99.90;;;;;;4994852;28;20074;-87
2022/12/22 13:37:27;;;;;;;16.95;3.83;;;9.00;99.90;;;;;;4916742;29;20052;-87
2022/12/22 13:40:09;;;;;;;12.48;2.85;;;9.00;99.90;;;;;;4919881;29;20060;-87
2022/12/22 13:42:41;;;;;;;11.45;3.33;;;9.00;99.90;;;;;;4961677;28;20054;-87
2022/12/22 13:45:47;;;;;;;14.57;3.25;;;9.10;99.90;;;;;;4967063;28;20031;-88
2022/12/22 13:48:16;;;;;;;14.27;3.13;;;9.10;99.90;;;;;;4974881;28;20450;-87
2022/12/22 13:50:46;;;;;;;15.43;2.83;;;9.10;99.90;;;;;;4969903;28;20065;-87
2022/12/22 13:53:34;;;;;;;12.48;2.60;;;9.20;99.90;;;;;;4976345;28;20093;-87
2022/12/22 13:56:00;;;;;;;12.48;2.80;;;9.20;99.90;;;;;;4974701;28;20101;-88
2022/12/22 13:58:53;;;;;;;13.65;2.92;;;9.20;99.90;;;;;;4993938;28;20429;-88
2022/12/22 14:01:19;;;;;;;10.15;2.38;;;9.20;99.90;;;;;;4963347;28;20125;-87
2022/12/22 14:03:47;;;;;;;15.85;3.05;;;9.20;99.90;;;;;;4975399;28;20133;-87
2022/12/22 14:06:37;;;;;;;18.77;3.00;;;9.30;99.90;;;;;;4973845;28;20577;-87
2022/12/22 14:09:20;;;;;;;14.65;2.65;;;9.30;99.90;;;;;;4995693;28;20031;-87
2022/12/22 14:12:14;;;;;;;18.65;3.10;;;9.30;99.90;;;;;;4977483;28;20082;-88
2022/12/22 14:14:42;;;;;;;15.45;2.60;;;9.30;99.90;;;;;;4928782;28;20086;-87
2022/12/22 14:17:20;;;;;;;16.00;2.67;;;9.30;99.90;;;;;;4975852;28;20516;-87
2022/12/22 14:20:11;;;;;;;12.55;2.83;;;9.30;99.90;;;;;;4994544;28;20398;-87
2022/12/22 14:23:09;;;;;;;13.90;3.22;;;9.30;99.90;;;;;;4976758;28;20470;-87
2022/12/22 14:25:42;;;;;;;11.18;2.72;;;9.30;99.90;;;;;;4934243;29;20443;-88
2022/12/22 14:28:53;;;;;;;12.25;3.30;;;9.30;99.90;;;;;;4937752;29;20542;-86
2022/12/22 14:31:41;;;;;;;9.73;3.10;;;9.30;99.90;;;;;;4952854;29;20046;-86
2022/12/22 14:34:46;;;;;;;13.65;3.08;;;9.30;99.90;;;;;;4936235;29;20054;-86
2022/12/22 14:44:15;;;;;;;;;;;;;;;;;;;;;
2022/12/22 14:50:41;;;;;;;13.60;3.10;;;9.20;99.90;;;;;;4919600;29;20082;-86
2022/12/22 15:04:02;;;;;;;11.70;2.75;;;9.10;99.90;;;;;;4971154;28;20085;-87
2022/12/22 15:07:07;;;;;;;14.10;3.10;;;9.10;99.90;;;;;;4992741;28;20046;-88
2022/12/22 15:09:51;;;;;;;11.13;2.60;;;9.10;99.90;;;;;;4961610;28;20044;-88
2022/12/22 15:12:17;;;;;;;10.88;3.00;;;9.10;99.90;;;;;;4973320;28;21716;-88
2022/12/22 15:15:02;;;;;;;14.80;2.80;;;9.10;99.90;;;;;;4972956;28;20062;-88
2022/12/22 15:17:56;;;;;;;12.73;2.95;;;9.00;99.90;;;;;;4988387;28;20037;-87
2022/12/22 15:24:31;;;;;;;10.07;2.70;;;9.00;99.90;;;;;;4972273;28;20490;-88
2022/12/22 15:36:06;;;;;;;16.83;3.08;;;8.90;99.90;;;;;;5006513;23;20062;-88
2022/12/22 15:38:37;;;;;;;12.55;3.25;;;8.90;99.90;;;;;;4934782;29;20071;-87
2022/12/22 15:44:14;;;;;;;11.75;3.15;;;8.80;99.90;;;;;;4937398;29;20051;-89
2022/12/22 15:55:53;;;;;;;9.68;3.38;;;8.80;99.90;;;;;;4997765;23;20058;-89
2022/12/22 15:58:22;;;;;;;11.30;3.58;;;8.80;99.90;;;;;;4976207;28;20049;-91
2022/12/22 16:01:16;;;;;;;13.02;4.07;;;8.80;99.90;;;;;;4977202;28;20043;-90
2022/12/22 16:03:45;;;;;;;16.27;5.20;;;8.80;99.90;;;;;;4955761;28;20055;-89
2022/12/22 16:06:15;;;;;;;11.43;4.15;;;8.80;99.90;;;;;;4996378;28;20162;-90
2022/12/22 16:08:48;;;;;;;13.63;5.18;;;8.80;99.90;;;;;;4959680;28;20055;-88
2022/12/22 16:11:14;;;;;;;14.40;6.40;;;8.80;99.90;;;;;;4994903;28;20053;-87
2022/12/22 16:13:40;;;;;;;11.27;5.28;;;8.80;99.90;;;;;;4976178;28;20047;-87
2022/12/22 16:16:07;;;;;;;12.27;5.10;;;8.80;99.90;;;;;;4963246;28;20564;-87
2022/12/22 16:18:33;;;;;;;14.13;6.30;;;8.80;99.90;;;;;;4996796;28;20042;-87
2022/12/22 16:21:06;;;;;;;14.80;6.15;;;8.80;99.90;;;;;;4974721;28;20130;-88
2022/12/22 16:23:34;;;;;;;16.40;7.15;;;8.80;99.90;;;;;;4974999;28;20049;-88
2022/12/22 16:26:00;;;;;;;16.58;6.00;;;8.80;99.90;;;;;;4975486;28;20043;-88
2022/12/22 16:28:29;;;;;;;13.88;5.22;;;8.70;99.90;;;;;;4991919;28;20474;-89
2022/12/22 16:30:55;;;;;;;14.95;5.85;;;8.80;99.90;;;;;;4979216;28;20038;-88
2022/12/22 16:33:20;;;;;;;14.77;5.35;;;8.70;99.90;;;;;;4979667;28;20113;-88
2022/12/22 16:35:49;;;;;;;19.40;8.68;;;8.70;99.90;;;;;;4978500;28;20130;-87
2022/12/22 16:38:18;;;;;;;15.75;9.35;;;8.70;99.90;;;;;;4977885;28;20537;-84
2022/12/22 16:40:47;;;;;;;15.68;8.40;;;8.70;99.90;;;;;;4994472;28;20050;-87
2022/12/22 16:43:21;;;;;;;17.63;9.80;;;8.70;99.90;;;;;;4973940;28;20039;-86
2022/12/22 16:45:48;;;;;;;22.10;13.05;;;8.70;99.90;;;;;;4977050;28;20046;-87
2022/12/22 16:48:31;;;;;;;17.00;11.18;;;8.70;99.90;;;;;;4973274;28;20105;-85
2022/12/22 16:50:57;;;;;;;16.33;11.10;;;8.70;99.90;;;;;;4977490;28;20050;-87
2022/12/22 16:53:23;;;;;;;27.05;15.93;;;8.60;99.90;;;;;;4976375;28;20577;-85
2022/12/22 16:55:48;;;;;;;17.08;11.82;;;8.60;99.90;;;;;;4976335;28;20055;-86
2022/12/22 16:58:14;;;;;;;20.95;15.00;;;8.60;99.90;;;;;;4995298;28;20038;-86
2022/12/22 17:00:42;;;;;;;15.18;9.40;;;8.60;99.90;;;;;;4975548;28;20050;-86
2022/12/22 17:03:37;;;;;;;18.67;12.93;;;8.60;99.90;;;;;;4977736;28;20508;-87
2022/12/22 17:06:03;;;;;;;19.55;13.30;;;8.60;99.90;;;;;;4992633;28;20137;-86
2022/12/22 17:08:33;;;;;;;16.05;11.73;;;8.60;99.90;;;;;;4995366;28;20434;-86
2022/12/22 17:11:01;;;;;;;16.48;10.75;;;8.60;99.90;;;;;;4976864;28;20042;-86
2022/12/22 17:13:27;;;;;;;17.70;12.20;;;8.50;99.90;;;;;;4978163;28;20050;-86
2022/12/22 17:15:53;;;;;;;21.70;14.75;;;8.50;99.90;;;;;;4975322;28;20097;-87
2022/12/22 17:18:20;;;;;;;19.60;13.95;;;8.50;99.90;;;;;;4988308;28;20528;-87
2022/12/22 17:20:51;;;;;;;22.15;13.93;;;8.50;99.90;;;;;;4994090;28;20049;-86
2022/12/22 17:23:33;;;;;;;27.48;16.55;;;8.40;99.90;;;;;;4980153;28;20039;-85
2022/12/22 17:26:02;;;;;;;16.13;11.18;;;8.40;99.90;;;;;;4986195;28;20058;-87
2022/12/22 17:28:28;;;;;;;25.90;16.48;;;8.40;99.90;;;;;;4976757;28;20042;-87
2022/12/22 17:30:54;;;;;;;25.38;15.85;;;8.30;99.90;;;;;;4974811;28;20046;-87
2022/12/22 17:33:19;;;;;;;23.05;15.15;;;8.30;99.90;;;;;;4974885;28;20047;-87
2022/12/22 17:35:46;;;;;;;27.83;18.77;;;8.30;99.90;;;;;;4983613;28;20057;-86
2022/12/22 17:38:17;;;;;;;29.60;19.40;;;8.20;99.90;;;;;;4976939;28;20046;-86
2022/12/22 17:40:44;;;;;;;28.50;18.25;;;8.20;99.90;;;;;;4982522;28;20473;-87
2022/12/22 17:43:18;;;;;;;24.38;16.38;;;8.20;99.90;;;;;;4977180;28;20055;-87
2022/12/22 17:45:47;;;;;;;28.23;18.08;;;8.20;99.90;;;;;;4973582;28;20055;-87
2022/12/22 17:48:14;;;;;;;30.50;18.40;;;8.20;99.90;;;;;;4961047;28;20137;-87
2022/12/22 17:50:41;;;;;;;25.38;16.10;;;8.20;99.90;;;;;;4973260;28;20059;-87
2022/12/22 17:53:13;;;;;;;30.45;19.48;;;8.20;99.90;;;;;;4992396;28;20402;-91
2022/12/22 17:55:39;;;;;;;29.48;16.23;;;8.10;99.90;;;;;;4974498;28;20054;-86
2022/12/22 17:58:05;;;;;;;42.45;22.35;;;8.20;99.90;;;;;;4975137;28;20425;-86
2022/12/22 18:00:31;;;;;;;50.75;24.20;;;8.20;99.90;;;;;;4974042;28;20082;-86
2022/12/22 18:02:57;;;;;;;32.38;19.58;;;8.20;99.90;;;;;;4975822;28;20038;-85
2022/12/22 18:05:26;;;;;;;30.63;17.45;;;8.20;99.90;;;;;;4974567;28;20109;-86
2022/12/22 18:07:57;;;;;;;28.15;16.77;;;8.20;99.90;;;;;;4974133;28;20043;-86
2022/12/22 18:10:32;;;;;;;29.48;16.60;;;8.10;99.90;;;;;;4993313;28;20037;-86
2022/12/22 18:13:00;;;;;;;28.35;17.80;;;8.20;99.90;;;;;;4988836;28;20549;-86
2022/12/22 18:15:28;;;;;;;29.98;17.67;;;8.20;99.90;;;;;;4974772;28;20034;-86
2022/12/22 18:17:54;;;;;;;28.80;17.10;;;8.20;99.90;;;;;;4975789;28;20054;-86
2022/12/22 18:20:25;;;;;;;25.15;16.73;;;8.20;99.90;;;;;;4973644;28;20077;-87
2022/12/22 18:23:00;;;;;;;27.65;17.08;;;8.20;99.90;;;;;;4958474;28;20461;-87
2022/12/22 18:25:28;;;;;;;25.80;15.68;;;8.20;99.90;;;;;;4962858;28;20764;-87
2022/12/22 18:27:55;;;;;;;30.83;18.88;;;8.20;99.90;;;;;;4975015;28;20520;-86
2022/12/22 18:30:24;;;;;;;27.42;18.17;;;8.20;99.90;;;;;;4963852;28;20406;-84
2022/12/22 18:32:51;;;;;;;30.42;20.30;;;8.20;99.90;;;;;;4973654;28;20122;-84
2022/12/22 18:35:18;;;;;;;24.92;16.15;;;8.20;99.90;;;;;;4956929;28;20042;-84
2022/12/22 18:37:44;;;;;;;25.92;16.27;;;8.20;99.90;;;;;;4973027;28;20050;-84
2022/12/22 18:40:37;;;;;;;37.80;20.70;;;8.20;99.90;;;;;;4972992;28;20503;-85
2022/12/22 18:43:10;;;;;;;44.87;23.57;;;8.20;99.90;;;;;;4970663;28;20058;-86
2022/12/22 18:45:36;;;;;;;40.00;21.70;;;8.20;99.90;;;;;;4964372;28;20513;-85
2022/12/22 18:48:01;;;;;;;27.50;17.15;;;8.20;99.90;;;;;;4972954;28;20105;-85
2022/12/22 18:50:29;;;;;;;26.65;17.17;;;8.20;99.90;;;;;;4992185;28;20053;-86
2022/12/22 18:52:57;;;;;;;28.10;17.83;;;8.20;99.90;;;;;;4975742;28;20608;-85
2022/12/22 18:55:27;;;;;;;28.35;18.75;;;8.20;99.90;;;;;;4966287;28;20133;-86
2022/12/22 18:57:55;;;;;;;27.83;17.38;;;8.20;99.90;;;;;;4973691;28;20043;-86
2022/12/22 19:00:28;;;;;;;27.85;17.30;;;8.20;99.90;;;;;;4974088;28;20093;-86
2022/12/22 19:02:57;;;;;;;27.70;20.10;;;8.20;99.90;;;;;;4991274;28;20379;-86